• Join FlightAware (Why Join?)
  • Login
  • US Flag 
06:04AM EDT


 

Airport Tracker/Info


-or-


 

Live Flight TrackerFlight Track Log ✈ KAP927 ✈ 06-Sep-2013 ✈ KALB - KBOS

Flight Track Log - Related Links

Times and Time Zones

All times are in EDT time to prevent confusion due to time zone crossing. See the KAP927 flight status page for this flight to view local times or setup timezone preferences in your user account.

Time Position Orientation Groundspeed Altitude Reporting Facility
EDT Latitude Longitude Course Direction KTS MPH feet Rate Location/Type
06:31PM 42.7714 -73.8092 360° North 117 135 1,000  Level Boston Center
06:31PM 42.7714 -73.8092 342° North 117 135 1,000 600 Level Boston Center
06:32PM 42.8047 -73.8239 342° North 118 136 1,600 600 Climbing Boston Center
06:32PM 42.8047 -73.8239 342° North 118 136 1,600 660 Level Boston Center
06:33PM 42.8336 -73.8444 332° Northwest 117 135 2,300 660 Climbing Boston Center
06:33PM 42.8336 -73.8444 332° Northwest 117 135 2,300 600 Level Boston Center
06:34PM 42.8603 -73.8706 324° Northwest 120 138 2,900 600 Climbing Boston Center
06:34PM 42.8603 -73.8706 324° Northwest 120 138 2,900 540 Level Boston Center
06:35PM 42.8914 -73.8911 334° Northwest 123 142 3,500 540 Climbing Boston Center
06:35PM 42.8914 -73.8911 334° Northwest 123 142 3,500 540 Level Boston Center
06:36PM 42.9181 -73.9172 324° Northwest 123 142 4,100 540 Climbing Boston Center
06:36PM 42.9181 -73.9172 324° Northwest 123 142 4,100 600 Level Boston Center
06:37PM 42.9469 -73.9433 327° Northwest 124 143 4,700 600 Climbing Boston Center
06:37PM 42.9469 -73.9433 327° Northwest 124 143 4,700 600 Level Boston Center
06:38PM 42.9800 -73.9697 330° Northwest 125 144 5,300 600 Climbing Boston Center
06:38PM 42.9800 -73.9697 330° Northwest 125 144 5,300 420 Level Boston Center
06:39PM 43.0128 -73.9961 330° Northwest 129 148 5,800 420 Climbing Boston Center
06:39PM 43.0128 -73.9961 330° Northwest 129 148 5,800  Level Boston Center
06:39PM 43.0131 -73.9933 82° East 132 152 5,800  Level Boston Center
06:39PM 43.0131 -73.9933 82° East 132 152 5,800 480 Level Boston Center
06:40PM 43.0439 -74.0225 325° Northwest 134 154 6,300 480 Climbing Boston Center
06:40PM 43.0439 -74.0225 325° Northwest 134 154 6,300 180 Level Boston Center
06:41PM 43.0811 -74.0461 335° Northwest 140 161 6,500 180 Climbing Boston Center
06:41PM 43.0811 -74.0461 335° Northwest 140 161 6,500 -120 Level Boston Center
06:42PM 43.1097 -74.0783 321° Northwest 158 182 6,400 -120 Descending Boston Center
06:42PM 43.1097 -74.0783 321° Northwest 158 182 6,400 60 Level Boston Center
06:43PM 43.1489 -74.1106 329° Northwest 164 189 6,500 60 Climbing Boston Center
06:43PM 43.1489 -74.1106 329° Northwest 164 189 6,500  Level Boston Center
06:44PM 43.1858 -74.1428 328° Northwest 176 203 6,500  Level Boston Center
06:44PM 43.1858 -74.1428 328° Northwest 176 203 6,500 -120 Level Boston Center
06:45PM 43.2250 -74.1753 329° Northwest 176 203 6,400 -120 Descending Boston Center
06:45PM 43.2250 -74.1753 329° Northwest 176 203 6,400  Level Boston Center
06:46PM 43.2619 -74.2078 327° Northwest 160 184 6,400  Level Boston Center
06:46PM 43.2619 -74.2078 327° Northwest 160 184 6,400  Level Boston Center
06:47PM 43.2992 -74.2403 328° Northwest 160 184 6,400  Level Boston Center
06:47PM 43.2992 -74.2403 328° Northwest 160 184 6,400  Level Boston Center
06:48PM 43.3339 -74.2697 328° Northwest 155 178 6,400  Level Boston Center
06:48PM 43.3339 -74.2697 328° Northwest 155 178 6,400  Level Boston Center
06:49PM 43.3689 -74.2967 331° Northwest 150 173 6,400  Level Boston Center
06:49PM 43.3689 -74.2967 331° Northwest 150 173 6,400 60 Level Boston Center
06:50PM 43.4019 -74.3289 325° Northwest 150 173 6,500 60 Climbing Boston Center
06:50PM 43.4019 -74.3289 325° Northwest 150 173 6,500 -120 Level Boston Center
06:51PM 43.4367 -74.3586 328° Northwest 150 173 6,400 -120 Descending Boston Center
06:51PM 43.4367 -74.3586 328° Northwest 150 173 6,400  Level Boston Center
06:52PM 43.4717 -74.3883 328° Northwest 150 173 6,400  Level Boston Center
06:52PM 43.4717 -74.3883 328° Northwest 150 173 6,400 60 Level Boston Center
06:53PM 43.5044 -74.4181 327° Northwest 150 173 6,500 60 Climbing Boston Center
06:53PM 43.5044 -74.4181 327° Northwest 150 173 6,500 -120 Level Boston Center
06:54PM 43.5414 -74.4481 330° Northwest 150 173 6,400 -120 Descending Boston Center
06:54PM 43.5414 -74.4481 330° Northwest 150 173 6,400  Level Boston Center
06:55PM 43.5722 -74.4778 325° Northwest 150 173 6,400  Level Boston Center
06:55PM 43.5722 -74.4778 325° Northwest 150 173 6,400  Level Boston Center
06:56PM 43.6072 -74.5047 331° Northwest 150 173 6,400  Level Boston Center
06:56PM 43.6072 -74.5047 331° Northwest 150 173 6,400 60 Level Boston Center
06:57PM 43.6400 -74.5344 327° Northwest 150 173 6,500 60 Climbing Boston Center
06:57PM 43.6400 -74.5344 327° Northwest 150 173 6,500 -120 Level Boston Center
06:58PM 43.6728 -74.5614 329° Northwest 150 173 6,400 -120 Descending Boston Center
06:58PM 43.6728 -74.5614 329° Northwest 150 173 6,400 60 Level Boston Center
06:59PM 43.7056 -74.5914 327° Northwest 150 173 6,500 60 Climbing Boston Center
06:59PM 43.7056 -74.5914 327° Northwest 150 173 6,500  Level Boston Center
06:59PM 43.7056 -74.5914 327° Northwest 150 173 6,500  Level Boston Center
06:59PM 43.7056 -74.5914 327° Northwest 150 173 6,500  Level Boston Center
06:59PM 43.7056 -74.5914 327° Northwest 150 173 6,500  Level Boston Center
07:00PM 43.7383 -74.6183 329° Northwest 150 173 6,500  Level Boston Center
07:01PM 43.7711 -74.6483 327° Northwest 150 173 6,500  Level Boston Center
07:02PM 43.8039 -74.6783 327° Northwest 145 167 6,500 -60 Level Boston Center
07:03PM 43.8347 -74.7053 328° Northwest 145 167 6,400  Descending Boston Center
07:04PM 43.8697 -74.7325 331° Northwest 145 167 6,500  Climbing Boston Center
07:05PM 43.9003 -74.7625 325° Northwest 145 167 6,500  Level Boston Center
07:06PM 43.9331 -74.7897 329° Northwest 145 167 6,500  Level Boston Center
07:07PM 43.9658 -74.8200 326° Northwest 145 167 6,500  Level Boston Center
07:08PM 43.9986 -74.8500 327° Northwest 145 167 6,500  Level Boston Center
07:09PM 44.0314 -74.8772 329° Northwest 145 167 6,500  Level Boston Center
07:10PM 44.0642 -74.9047 329° Northwest 145 167 6,500 -60 Level Boston Center
07:11PM 44.0989 -74.9350 328° Northwest 140 161 6,400  Descending Boston Center
07:12PM 44.1294 -74.9653 325° Northwest 140 161 6,500  Climbing Boston Center
07:13PM 44.1622 -74.9928 329° Northwest 140 161 6,500 -60 Level Boston Center
07:14PM 44.1969 -75.0203 330° Northwest 140 161 6,400 -300 Descending Boston Center
07:15PM 44.2336 -75.0567 325° Northwest 145 167 6,000 -360 Descending Boston Center
07:16PM 44.2706 -75.0844 332° Northwest 145 167 5,700 -300 Descending Boston Center
07:17PM 44.3053 -75.1119 330° Northwest 150 173 5,500 -360 Descending Boston Center
07:18PM 44.3464 -75.1400 334° Northwest 150 173 5,100 -420 Descending Boston Center
07:19PM 44.3853 -75.1736 328° Northwest 150 173 4,700 -420 Descending Boston Center
07:20PM 44.4283 -75.1961 340° North 156 180 4,300 -360 Descending Boston Center
07:21PM 44.4672 -75.2300 328° Northwest 156 180 4,000 -420 Descending Boston Center
07:22PM 44.5103 -75.2581 335° Northwest 156 180 3,500 -540 Descending Boston Center
07:23PM 44.5531 -75.2950 328° Northwest 161 185 3,000 -540 Descending Boston Center
07:25PM 44.5902 -75.3659 306° West  Level FlightAware Approximate
07:32PM 44.6667 -75.4500 325° Northwest  Level FlightAware Approximate
07:33PM 44.6452 -75.4053 325° Northwest  Level Estimated
07:34PM 44.6667 -75.4500 325° Northwest  Level FlightAware Approximate
07:35PM 44.6452 -75.4053 325° Northwest  Level Estimated
07:36PM 44.6667 -75.4500 325° Northwest  Level FlightAware Approximate
07:37PM 44.6452 -75.4053 325° Northwest  Level Estimated
07:38PM 44.6667 -75.4500 325° Northwest  Level FlightAware Approximate
07:39PM 44.6452 -75.4053 325° Northwest  Level Estimated
07:40PM 44.6667 -75.4500 325° Northwest  Level FlightAware Approximate
07:41PM 44.6452 -75.4053 325° Northwest  Level Estimated
07:42PM 44.6667 -75.4500 325° Northwest  Level FlightAware Approximate
07:43PM 44.6452 -75.4053 325° Northwest  Level Estimated
07:44PM 44.6667 -75.4500 325° Northwest  Level FlightAware Approximate
07:45PM 44.6452 -75.4053 325° Northwest  Level Estimated
07:46PM 44.6667 -75.4500 325° Northwest  Level FlightAware Approximate